This is the latest recevied weather packets stored in our database for station/object IZ1UQG-N2. If no packets are shown the sender has not sent any weather packets the latest 10 day(s).
| Time | Temp. | Humidity | Pressure | Rain* | Wind** | Luminosity | Snow |
|---|---|---|---|---|---|---|---|
| 1777733942 | 22.22° C | 40% | 1018.5 hPa | 0 mm | - | 438 W/m² | - |
| 1777733941 | 22.22° C | 41% | 1018.5 hPa | 0 mm | - | 427 W/m² | - |
| 1777733891 | 22.22° C | 40% | 1018.4 hPa | 0 mm | - | 452 W/m² | - |
| 1777733883 | 22.22° C | 40% | 1018.6 hPa | 0 mm | - | 443 W/m² | - |
| 1777733825 | 22.22° C | 40% | 1018.6 hPa | 0 mm | - | 443 W/m² | - |
| 1777733765 | 22.22° C | 40% | 1018.5 hPa | 0 mm | - | 452 W/m² | - |
| 1777733762 | 22.22° C | 40% | 1018.5 hPa | 0 mm | - | 452 W/m² | - |
| 1777733756 | 22.22° C | 40% | 1018.5 hPa | 0 mm | - | 464 W/m² | - |
| 1777733706 | 22.78° C | 41% | 1018.6 hPa | 0 mm | - | 501 W/m² | - |
| 1777733704 | 22.22° C | 40% | 1018.5 hPa | 0 mm | - | 438 W/m² | - |
| 1777733651 | 22.22° C | 41% | 1018.7 hPa | 0 mm | - | 503 W/m² | - |
| 1777733646 | 22.22° C | 41% | 1018.7 hPa | 0 mm | - | 503 W/m² | - |
| 1777733644 | 22.22° C | 40% | 1018.4 hPa | 0 mm | - | 452 W/m² | - |
| 1777733585 | 22.22° C | 41% | 1018.4 hPa | 0 mm | - | 450 W/m² | - |
| 1777733582 | 22.22° C | 41% | 1018.4 hPa | 0 mm | - | 450 W/m² | - |
| 1777733536 | 22.22° C | 40% | 1018.6 hPa | 0 mm | - | 531 W/m² | - |
| 1777733524 | 22.22° C | 40% | 1018.5 hPa | 0 mm | - | 464 W/m² | - |
| 1777733464 | 22.78° C | 41% | 1018.6 hPa | 0 mm | - | 501 W/m² | - |
| 1777733411 | 22.22° C | 41% | 1018.7 hPa | 0 mm | - | 496 W/m² | - |
| 1777733404 | 22.22° C | 41% | 1018.7 hPa | 0 mm | - | 503 W/m² | - |
| 1777733402 | 22.22° C | 41% | 1018.7 hPa | 0 mm | - | 503 W/m² | - |
| 1777733344 | 22.22° C | 40% | 1018.5 hPa | 0 mm | - | 515 W/m² | - |
| 1777733295 | 22.22° C | 40% | 1018.5 hPa | 0 mm | - | 540 W/m² | - |
| 1777733285 | 22.22° C | 40% | 1018.6 hPa | 0 mm | - | 531 W/m² | - |
| 1777733224 | 22.22° C | 41% | 1018.6 hPa | 0 mm | - | 524 W/m² | - |
* Rain latest hour (hover to see other rain measurements)
** Current wind speed in m/s (hover to see current wind gust speed)